createdAt,value
2019-05-01T00:00:36.931Z,10.40
2019-05-01T00:03:09.626Z,10.00
2019-05-01T00:05:40.905Z,10.23
2019-05-01T00:08:10.392Z,9.93
2019-05-01T00:10:39.674Z,9.73
2019-05-01T00:13:08.581Z,10.50
2019-05-01T00:15:40.277Z,10.00
2019-05-01T00:18:09.781Z,10.53
2019-05-01T00:20:38.920Z,10.58
2019-05-01T00:23:07.565Z,10.50
2019-05-01T00:25:50.006Z,10.40
2019-05-01T00:28:18.775Z,10.58
2019-05-01T00:30:47.714Z,10.70
2019-05-01T00:33:16.473Z,11.67
2019-05-01T00:35:45.429Z,12.07
2019-05-01T00:38:16.791Z,12.23
2019-05-01T00:40:48.863Z,12.93
2019-05-01T00:43:23.998Z,12.63
2019-05-01T00:45:53.386Z,12.60
2019-05-01T00:48:22.037Z,11.97
2019-05-01T00:50:51.640Z,11.90
2019-05-01T00:53:20.831Z,11.70
2019-05-01T00:55:54.205Z,11.95
2019-05-01T00:58:49.999Z,12.25
2019-05-01T01:01:37.843Z,12.20
2019-05-01T01:04:07.302Z,11.93
2019-05-01T01:06:36.383Z,11.60
2019-05-01T01:09:08.883Z,11.33
2019-05-01T01:11:40.193Z,12.05
2019-05-01T01:14:10.451Z,11.28
2019-05-01T01:16:40.935Z,12.13
2019-05-01T01:19:10.595Z,12.07
2019-05-01T01:21:40.066Z,11.70
2019-05-01T01:24:08.961Z,11.55
2019-05-01T01:26:50.368Z,12.55
2019-05-01T01:29:19.219Z,12.13
2019-05-01T01:31:47.876Z,12.88
2019-05-01T01:34:17.471Z,12.57
2019-05-01T01:36:46.554Z,12.53
2019-05-01T01:39:16.977Z,12.82
2019-05-01T01:41:46.937Z,12.10
2019-05-01T01:44:22.057Z,13.05
2019-05-01T01:46:52.415Z,13.30
2019-05-01T01:49:21.042Z,13.10
2019-05-01T01:51:49.880Z,13.55
2019-05-01T01:54:19.861Z,13.85
2019-05-01T01:56:49.847Z,14.20
2019-05-01T01:59:23.152Z,13.30
2019-05-01T02:01:56.792Z,13.28
2019-05-01T02:04:46.720Z,13.80
2019-05-01T02:07:17.911Z,14.00
2019-05-01T02:09:47.690Z,13.45
2019-05-01T02:12:17.298Z,13.32
2019-05-01T02:14:46.768Z,13.35
2019-05-01T02:17:15.964Z,13.88
2019-05-01T02:19:46.015Z,14.07
2019-05-01T02:22:14.790Z,14.20
2019-05-01T02:24:43.592Z,13.53
2019-05-01T02:27:16.644Z,13.62
2019-05-01T02:29:49.097Z,13.93
2019-05-01T02:32:18.531Z,13.75
2019-05-01T02:34:47.410Z,13.00
2019-05-01T02:37:16.893Z,12.10
2019-05-01T02:39:47.095Z,13.25
2019-05-01T02:42:18.301Z,13.78
2019-05-01T02:44:58.652Z,13.98
2019-05-01T02:47:29.188Z,13.22
2019-05-01T02:50:03.155Z,14.80
2019-05-01T02:52:33.229Z,14.87
2019-05-01T02:55:05.204Z,15.40
2019-05-01T02:57:34.922Z,15.28
2019-05-01T03:00:04.460Z,15.58
2019-05-01T03:02:35.351Z,15.83
2019-05-01T03:05:04.177Z,16.75
2019-05-01T03:07:41.800Z,16.73
2019-05-01T03:10:10.953Z,17.67
2019-05-01T03:12:42.383Z,16.75
2019-05-01T03:15:12.250Z,17.05
2019-05-01T03:17:47.072Z,16.30
2019-05-01T03:20:34.412Z,15.15
2019-05-01T03:23:19.629Z,14.53
2019-05-01T03:25:48.665Z,15.38
2019-05-01T03:28:17.847Z,14.90
2019-05-01T03:30:46.602Z,15.20
2019-05-01T03:33:15.663Z,15.50
2019-05-01T03:35:47.539Z,16.27
2019-05-01T03:38:17.196Z,15.67
2019-05-01T03:40:45.951Z,16.27
2019-05-01T03:43:14.711Z,16.73
2019-05-01T03:45:43.764Z,17.17
2019-05-01T03:48:12.783Z,17.85
2019-05-01T03:50:54.412Z,17.92
2019-05-01T03:53:19.185Z,19.37
2019-05-01T03:55:48.082Z,18.52
2019-05-01T03:58:18.428Z,19.48
2019-05-01T04:01:12.182Z,19.30
2019-05-01T04:03:43.421Z,19.13
2019-05-01T04:06:12.422Z,19.00
2019-05-01T04:08:41.507Z,19.20
2019-05-01T04:11:10.521Z,19.00
2019-05-01T04:13:45.737Z,19.87
2019-05-01T04:16:16.543Z,18.80
2019-05-01T04:18:45.163Z,19.60
2019-05-01T04:21:15.277Z,18.57
2019-05-01T04:23:44.573Z,18.90
2019-05-01T04:26:13.847Z,18.67
2019-05-01T04:28:46.932Z,19.25
2019-05-01T04:34:22.041Z,20.65
2019-05-01T04:36:52.671Z,21.50
2019-05-01T04:39:31.527Z,21.33
2019-05-01T04:41:55.069Z,21.03
2019-05-01T04:44:24.691Z,21.52
2019-05-01T04:46:53.672Z,20.65
2019-05-01T04:49:24.711Z,20.45
2019-05-01T04:51:57.035Z,21.52
2019-05-01T04:54:27.184Z,20.65
2019-05-01T04:56:56.499Z,20.43
2019-05-01T04:59:25.479Z,20.80
2019-05-01T05:01:58.406Z,20.92
2019-05-01T05:04:32.428Z,20.30
2019-05-01T05:07:02.268Z,20.57
2019-05-01T05:09:42.549Z,19.60
2019-05-01T05:12:28.430Z,19.32
2019-05-01T05:15:17.047Z,20.20
2019-05-01T05:17:45.717Z,20.65
2019-05-01T05:20:15.762Z,20.23
2019-05-01T05:22:44.753Z,19.65
2019-05-01T05:25:18.869Z,20.13
2019-05-01T05:27:48.942Z,20.48
2019-05-01T05:30:18.050Z,20.60
2019-05-01T05:32:47.353Z,20.90
2019-05-01T05:35:18.766Z,20.62
2019-05-01T05:37:56.739Z,20.80
2019-05-01T05:40:26.250Z,20.52
2019-05-01T05:42:55.506Z,21.37
2019-05-01T05:45:24.858Z,22.07
2019-05-01T05:47:53.764Z,23.20
2019-05-01T05:50:30.611Z,24.12
2019-05-01T05:53:01.105Z,24.23
2019-05-01T05:55:46.042Z,24.60
2019-05-01T05:58:20.468Z,25.60
2019-05-01T06:00:51.319Z,25.23
2019-05-01T06:03:40.802Z,24.72
2019-05-01T06:06:14.004Z,25.12
2019-05-01T06:08:44.527Z,24.47
2019-05-01T06:11:34.046Z,23.07
2019-05-01T06:14:19.612Z,22.77
2019-05-01T06:16:52.307Z,22.87
2019-05-01T06:19:25.011Z,22.53
2019-05-01T06:22:10.304Z,22.22
2019-05-01T06:24:42.111Z,21.33
2019-05-01T06:27:13.707Z,21.37
2019-05-01T06:29:42.615Z,21.27
2019-05-01T06:32:11.873Z,20.13
2019-05-01T06:34:43.726Z,20.68
2019-05-01T06:37:14.569Z,20.57
2019-05-01T06:39:48.061Z,20.57
2019-05-01T06:42:18.395Z,20.90
2019-05-01T06:45:01.653Z,21.27
2019-05-01T06:47:38.265Z,20.60
2019-05-01T06:50:10.809Z,20.00
2019-05-01T06:52:40.399Z,20.00
2019-05-01T06:55:10.419Z,19.30
2019-05-01T06:57:43.659Z,20.20
2019-05-01T07:00:14.278Z,19.57
2019-05-01T07:02:46.989Z,19.80
2019-05-01T07:05:16.513Z,20.25
2019-05-01T07:07:52.890Z,19.05
2019-05-01T07:10:29.838Z,19.52
2019-05-01T07:12:49.826Z,20.17
2019-05-01T07:15:21.850Z,19.48
2019-05-01T07:17:51.457Z,18.77
2019-05-01T07:20:35.565Z,18.32
2019-05-01T07:23:07.097Z,18.50
2019-05-01T07:25:39.335Z,18.82
2019-05-01T07:28:06.483Z,18.60
2019-05-01T07:30:41.481Z,18.05
2019-05-01T07:33:12.079Z,18.60
2019-05-01T07:35:41.769Z,17.52
2019-05-01T07:38:10.467Z,17.50
2019-05-01T07:40:40.895Z,16.97
2019-05-01T07:43:19.027Z,16.50
2019-05-01T07:45:58.176Z,16.80
2019-05-01T07:48:43.291Z,16.48
2019-05-01T07:51:16.248Z,14.70
2019-05-01T07:53:46.611Z,15.18
2019-05-01T07:56:28.249Z,15.68
2019-05-01T07:58:54.919Z,14.75
2019-05-01T08:01:41.892Z,13.58
2019-05-01T08:04:13.890Z,13.28
2019-05-01T08:06:43.917Z,13.40
2019-05-01T08:09:15.131Z,12.85
2019-05-01T08:11:47.021Z,13.13
2019-05-01T08:14:16.523Z,13.13
2019-05-01T08:16:46.568Z,13.18
2019-05-01T08:19:20.074Z,13.95
2019-05-01T08:21:50.814Z,14.33
2019-05-01T08:24:22.820Z,13.62
2019-05-01T08:26:50.430Z,13.03
2019-05-01T08:29:41.762Z,13.15
2019-05-01T08:32:25.456Z,13.45
2019-05-01T08:35:00.429Z,14.28
2019-05-01T08:37:28.660Z,14.60
2019-05-01T08:39:59.180Z,13.83
2019-05-01T08:42:28.600Z,13.73
2019-05-01T08:45:04.982Z,14.53
2019-05-01T08:47:33.562Z,13.35
2019-05-01T08:50:06.562Z,13.78
2019-05-01T08:52:36.684Z,13.50
2019-05-01T08:55:09.323Z,15.05
2019-05-01T08:57:39.217Z,14.38
2019-05-01T09:00:12.155Z,14.58
2019-05-01T09:02:47.660Z,14.63
2019-05-01T09:05:28.917Z,15.10
2019-05-01T09:07:55.947Z,14.60
2019-05-01T09:10:23.299Z,15.38
2019-05-01T09:12:52.900Z,14.83
2019-05-01T09:15:22.491Z,15.60
2019-05-01T09:17:51.786Z,14.55
2019-05-01T09:20:21.006Z,14.25
2019-05-01T09:22:51.221Z,14.53
2019-05-01T09:25:22.884Z,15.20
2019-05-01T09:28:04.211Z,14.45
2019-05-01T09:30:32.939Z,14.65
2019-05-01T09:33:01.580Z,14.45
2019-05-01T09:35:30.753Z,14.90
2019-05-01T09:38:00.082Z,13.83
2019-05-01T09:40:29.185Z,14.70
2019-05-01T09:43:03.205Z,13.05
2019-05-01T09:45:36.255Z,12.40
2019-05-01T09:48:05.882Z,11.88
2019-05-01T09:50:36.517Z,12.00
2019-05-01T09:53:15.721Z,12.28
2019-05-01T09:55:52.034Z,11.63
2019-05-01T09:58:22.724Z,11.15
2019-05-01T10:00:53.914Z,10.68
2019-05-01T10:03:23.826Z,10.80
2019-05-01T10:05:52.702Z,9.50
2019-05-01T10:08:22.046Z,9.33
2019-05-01T10:10:50.881Z,8.40
2019-05-01T10:13:24.153Z,8.05
2019-05-01T10:15:53.536Z,7.78
2019-05-01T10:18:23.353Z,7.97
2019-05-01T10:20:52.190Z,7.00
2019-05-01T10:23:20.990Z,7.03
2019-05-01T10:25:52.333Z,8.00
2019-05-01T10:28:38.732Z,8.50
2019-05-01T10:31:25.365Z,7.78
2019-05-01T10:34:02.790Z,8.70
2019-05-01T10:36:31.447Z,8.93
2019-05-01T10:39:02.814Z,9.10
2019-05-01T10:41:31.739Z,8.98
2019-05-01T10:44:01.987Z,9.45
2019-05-01T10:46:31.313Z,10.18
2019-05-01T10:49:00.364Z,10.28
2019-05-01T10:51:29.802Z,9.55
2019-05-01T10:54:00.672Z,15.00
2019-05-01T10:56:29.335Z,8.70
2019-05-01T10:59:00.074Z,9.53
2019-05-01T11:01:34.378Z,10.48
2019-05-01T11:04:04.367Z,10.20
2019-05-01T11:06:33.084Z,8.00
2019-05-01T11:09:02.054Z,7.37
2019-05-01T11:11:31.447Z,7.20
2019-05-01T11:14:00.340Z,6.78
2019-05-01T11:16:29.661Z,5.95
2019-05-01T11:18:59.858Z,5.97
2019-05-01T11:21:35.164Z,6.67
2019-05-01T11:24:09.525Z,5.92
2019-05-01T11:26:41.159Z,7.00
2019-05-01T11:29:11.240Z,6.47
2019-05-01T11:31:41.778Z,5.97
2019-05-01T11:34:32.590Z,6.22
2019-05-01T11:37:02.503Z,5.90
2019-05-01T11:39:43.576Z,6.10
2019-05-01T11:42:15.286Z,6.30
2019-05-01T11:44:43.956Z,6.08
2019-05-01T11:47:12.886Z,5.92
2019-05-01T11:49:41.982Z,6.23
2019-05-01T11:52:22.074Z,6.58
2019-05-01T11:55:00.218Z,6.67
2019-05-01T11:57:30.680Z,6.05
2019-05-01T11:59:59.367Z,6.17
2019-05-01T12:02:29.792Z,6.33
2019-05-01T12:04:59.923Z,5.90
2019-05-01T12:07:33.218Z,5.62
2019-05-01T12:10:02.370Z,6.12
2019-05-01T12:12:32.660Z,5.70
2019-05-01T12:15:01.492Z,6.08
2019-05-01T12:17:35.636Z,6.05
2019-05-01T12:20:06.389Z,6.30
2019-05-01T12:22:36.277Z,6.45
2019-05-01T12:25:12.285Z,5.97
2019-05-01T12:27:41.037Z,5.95
2019-05-01T12:30:10.295Z,6.87
2019-05-01T12:32:45.743Z,6.80
2019-05-01T12:35:21.517Z,6.90
2019-05-01T12:37:50.934Z,6.87
2019-05-01T12:40:20.386Z,7.12
2019-05-01T12:42:49.355Z,6.97
2019-05-01T12:45:23.305Z,6.62
2019-05-01T12:47:53.700Z,7.00
2019-05-01T12:50:22.371Z,6.90
2019-05-01T12:52:58.390Z,6.90
2019-05-01T12:55:45.255Z,6.70
2019-05-01T12:58:14.015Z,6.83
2019-05-01T13:00:43.459Z,7.37
2019-05-01T13:03:12.079Z,7.55
2019-05-01T13:05:40.702Z,7.45
2019-05-01T13:08:09.617Z,7.12
2019-05-01T13:10:38.503Z,7.43
2019-05-01T13:13:07.291Z,7.47
2019-05-01T13:15:35.991Z,7.60
2019-05-01T13:18:04.583Z,7.40
2019-05-01T13:20:37.081Z,7.62
2019-05-01T13:23:06.798Z,7.80
2019-05-01T13:25:35.445Z,8.13
2019-05-01T13:28:17.963Z,7.80
2019-05-01T13:30:51.609Z,7.80
2019-05-01T13:33:20.283Z,7.90
2019-05-01T13:35:49.384Z,7.58
2019-05-01T13:38:18.247Z,8.48
2019-05-01T13:40:46.909Z,8.73
2019-05-01T13:43:15.595Z,8.20
2019-05-01T13:45:44.207Z,8.23
2019-05-01T13:48:12.957Z,8.35
2019-05-01T13:50:41.516Z,8.77
2019-05-01T13:53:10.372Z,8.50
2019-05-01T13:55:39.003Z,7.90
2019-05-01T13:58:07.661Z,7.70
2019-05-01T14:00:36.291Z,9.20
2019-05-01T14:03:05.286Z,8.93
2019-05-01T14:05:34.030Z,8.68
2019-05-01T14:08:04.237Z,8.20
2019-05-01T14:10:36.260Z,8.20
2019-05-01T14:13:06.816Z,9.30
2019-05-01T14:15:37.297Z,8.50
2019-05-01T14:18:11.659Z,8.47
2019-05-01T14:20:57.964Z,8.23
2019-05-01T14:23:56.173Z,9.15
2019-05-01T14:26:24.789Z,9.00
2019-05-01T14:28:53.463Z,9.05
2019-05-01T14:31:22.158Z,7.95
2019-05-01T14:33:50.912Z,8.70
2019-05-01T14:36:20.438Z,8.10
2019-05-01T14:38:49.112Z,8.48
2019-05-01T14:41:17.810Z,8.00
2019-05-01T14:43:51.898Z,8.68
2019-05-01T14:46:22.239Z,8.13
2019-05-01T14:48:50.938Z,8.23
2019-05-01T14:51:21.653Z,8.00
2019-05-01T14:54:01.143Z,7.67
2019-05-01T14:56:30.002Z,8.40
2019-05-01T14:58:58.812Z,7.90
2019-05-01T15:01:27.562Z,8.05
2019-05-01T15:04:03.277Z,8.20
2019-05-01T15:06:33.599Z,7.67
2019-05-01T15:09:04.123Z,7.40
2019-05-01T15:11:33.167Z,6.55
2019-05-01T15:14:13.991Z,6.92
2019-05-01T15:16:44.296Z,7.10
2019-05-01T15:19:14.516Z,7.15
2019-05-01T15:21:43.292Z,7.15
2019-05-01T15:24:13.034Z,6.70
2019-05-01T15:26:42.835Z,6.95
2019-05-01T15:29:11.907Z,6.87
2019-05-01T15:31:40.886Z,6.20
2019-05-01T15:34:12.381Z,6.47
2019-05-01T15:36:42.203Z,6.70
2019-05-01T15:39:12.804Z,6.80
2019-05-01T15:42:02.263Z,6.90
2019-05-01T15:44:35.283Z,6.85
2019-05-01T15:47:04.499Z,8.20
2019-05-01T15:49:33.387Z,7.00
2019-05-01T15:52:02.386Z,6.83
2019-05-01T15:54:31.044Z,6.50
2019-05-01T15:57:08.403Z,6.65
2019-05-01T15:59:37.113Z,6.43
2019-05-01T16:02:05.991Z,6.53
2019-05-01T16:04:34.665Z,6.70
2019-05-01T16:07:04.956Z,6.53
2019-05-01T16:09:33.855Z,6.80
2019-05-01T16:12:20.450Z,6.80
2019-05-01T16:14:49.360Z,6.50
2019-05-01T16:17:18.139Z,6.43
2019-05-01T16:19:47.420Z,6.63
2019-05-01T16:22:17.666Z,6.70
2019-05-01T16:24:50.006Z,6.47
2019-05-01T16:27:18.702Z,6.75
2019-05-01T16:29:49.663Z,6.08
2019-05-01T16:32:18.349Z,6.20
2019-05-01T16:34:48.320Z,6.37
2019-05-01T16:37:19.319Z,6.10
2019-05-01T16:39:55.849Z,7.03
2019-05-01T16:42:26.082Z,6.75
2019-05-01T16:44:54.822Z,6.90
2019-05-01T16:47:25.310Z,6.62
2019-05-01T16:49:54.103Z,6.60
2019-05-01T16:52:24.625Z,7.28
2019-05-01T16:54:59.462Z,7.83
2019-05-01T16:57:23.752Z,8.00
2019-05-01T16:59:52.861Z,8.00
2019-05-01T17:02:29.325Z,8.18
2019-05-01T17:05:18.166Z,9.27
2019-05-01T17:07:57.393Z,9.40
2019-05-01T17:10:27.623Z,8.55
2019-05-01T17:12:57.054Z,9.23
2019-05-01T17:15:30.933Z,9.45
2019-05-01T17:18:05.416Z,9.50
2019-05-01T17:20:36.462Z,9.90
2019-05-01T17:23:05.711Z,9.45
2019-05-01T17:25:34.502Z,8.85
2019-05-01T17:28:08.095Z,9.50
2019-05-01T17:30:41.910Z,9.43
2019-05-01T17:33:19.836Z,9.03
2019-05-01T17:35:41.836Z,8.70
2019-05-01T17:38:11.730Z,9.43
2019-05-01T17:40:40.563Z,8.57
2019-05-01T17:43:13.409Z,9.53
2019-05-01T17:45:40.623Z,9.55
2019-05-01T17:48:09.482Z,9.03
2019-05-01T17:50:38.160Z,9.77
2019-05-01T17:53:07.203Z,9.65
2019-05-01T17:55:36.280Z,9.30
2019-05-01T17:58:05.822Z,9.80
2019-05-01T18:00:38.799Z,9.75
2019-05-01T18:03:12.882Z,9.85
2019-05-01T18:05:48.944Z,9.83
2019-05-01T18:08:18.774Z,9.53
2019-05-01T18:10:47.792Z,9.75
2019-05-01T18:13:31.939Z,10.60
2019-05-01T18:16:00.698Z,10.28
2019-05-01T18:18:29.294Z,9.78
2019-05-01T18:21:01.248Z,9.90
2019-05-01T18:23:52.903Z,9.18
2019-05-01T18:26:23.069Z,9.97
2019-05-01T18:29:11.738Z,9.85
2019-05-01T18:31:42.165Z,9.38
2019-05-01T18:34:10.947Z,9.53
2019-05-01T18:36:41.567Z,9.38
2019-05-01T18:39:21.997Z,9.03
2019-05-01T18:41:52.596Z,9.23
2019-05-01T18:44:21.366Z,9.15
2019-05-01T18:46:50.166Z,9.53
2019-05-01T18:49:18.858Z,9.63
2019-05-01T18:51:47.646Z,9.33
2019-05-01T18:54:16.557Z,9.00
2019-05-01T18:56:49.165Z,9.53
2019-05-01T18:59:20.465Z,9.63
2019-05-01T19:01:49.763Z,10.08
2019-05-01T19:04:23.293Z,9.63
2019-05-01T19:06:49.822Z,10.15
2019-05-01T19:09:29.296Z,10.43
2019-05-01T19:11:50.623Z,10.57
2019-05-01T19:14:23.590Z,10.95
2019-05-01T19:16:50.365Z,10.60
2019-05-01T19:19:19.942Z,11.10
2019-05-01T19:21:49.883Z,10.85
2019-05-01T19:24:19.133Z,11.35
2019-05-01T19:26:52.495Z,11.27
2019-05-01T19:29:21.501Z,11.30
2019-05-01T19:31:50.541Z,11.18
2019-05-01T19:34:19.968Z,11.53
2019-05-01T19:36:51.400Z,11.60
2019-05-01T19:39:43.376Z,11.63
2019-05-01T19:41:55.447Z,10.88
2019-05-01T19:44:24.100Z,10.95
2019-05-01T19:46:53.732Z,11.15
2019-05-01T19:49:24.486Z,10.98
2019-05-01T19:51:55.412Z,10.70
2019-05-01T19:54:27.855Z,11.20
2019-05-01T19:56:55.547Z,10.93
2019-05-01T19:59:24.158Z,11.00
2019-05-01T20:01:53.638Z,11.03
2019-05-01T20:04:22.436Z,11.03
2019-05-01T20:06:53.342Z,11.40
2019-05-01T20:09:23.612Z,10.82
2019-05-01T20:11:52.254Z,11.13
2019-05-01T20:14:21.070Z,12.07
2019-05-01T20:16:50.981Z,12.45
2019-05-01T20:19:19.852Z,12.25
2019-05-01T20:21:48.597Z,12.78
2019-05-01T20:24:19.354Z,11.78
2019-05-01T20:26:48.051Z,11.80
2019-05-01T20:29:17.789Z,11.88
2019-05-01T20:31:50.607Z,11.83
2019-05-01T20:34:18.741Z,11.60
2019-05-01T20:36:47.668Z,12.43
2019-05-01T20:39:16.485Z,11.70
2019-05-01T20:41:45.761Z,11.75
2019-05-01T20:44:23.406Z,11.78
2019-05-01T20:46:50.019Z,12.00
2019-05-01T20:49:18.865Z,11.65
2019-05-01T20:51:49.533Z,11.53
2019-05-01T20:54:18.631Z,11.88
2019-05-01T20:56:49.054Z,11.57
2019-05-01T20:59:17.831Z,11.57
2019-05-01T21:01:46.544Z,11.57
2019-05-01T21:04:19.397Z,11.30
2019-05-01T21:07:06.120Z,11.38
2019-05-01T21:09:47.615Z,11.78
2019-05-01T21:12:13.109Z,11.77
2019-05-01T21:14:45.279Z,11.70
2019-05-01T21:17:13.776Z,11.97
2019-05-01T21:19:44.576Z,11.43
2019-05-01T21:22:14.254Z,12.67
2019-05-01T21:24:44.353Z,13.10
2019-05-01T21:27:13.451Z,13.80
2019-05-01T21:29:44.350Z,14.87
2019-05-01T21:32:13.759Z,14.73
2019-05-01T21:34:43.498Z,14.98
2019-05-01T21:37:18.845Z,15.07
2019-05-01T21:39:47.648Z,14.80
2019-05-01T21:42:16.751Z,15.40
2019-05-01T21:44:45.432Z,15.15
2019-05-01T21:47:14.153Z,15.43
2019-05-01T21:49:43.137Z,15.75
2019-05-01T21:52:13.465Z,14.33
2019-05-01T21:54:42.644Z,13.98
2019-05-01T21:57:12.071Z,14.05
2019-05-01T21:59:44.756Z,13.95
2019-05-01T22:02:12.907Z,14.13
2019-05-01T22:04:42.048Z,14.18
2019-05-01T22:07:12.306Z,14.33
2019-05-01T22:09:45.733Z,13.55
2019-05-01T22:12:14.270Z,14.20
2019-05-01T22:14:58.433Z,13.50
2019-05-01T22:17:32.087Z,13.85
2019-05-01T22:19:59.436Z,14.05
2019-05-01T22:22:32.851Z,13.40
2019-05-01T22:25:03.108Z,14.33
2019-05-01T22:27:36.280Z,13.53
2019-05-01T22:30:20.731Z,12.78
2019-05-01T22:32:57.719Z,12.07
2019-05-01T22:35:28.197Z,11.95
2019-05-01T22:37:56.886Z,12.10
2019-05-01T22:40:28.642Z,12.20
2019-05-01T22:43:04.620Z,12.00
2019-05-01T22:45:28.977Z,13.05
2019-05-01T22:47:57.647Z,13.43
2019-05-01T22:50:26.691Z,13.55
2019-05-01T22:52:55.365Z,13.47
2019-05-01T22:55:31.295Z,14.10
2019-05-01T22:58:00.023Z,14.33
2019-05-01T23:00:33.485Z,13.60
2019-05-01T23:03:05.445Z,13.70
2019-05-01T23:05:34.152Z,13.98
2019-05-01T23:08:03.166Z,13.90
2019-05-01T23:10:33.890Z,14.65
2019-05-01T23:13:04.308Z,14.60
2019-05-01T23:15:33.301Z,13.58
2019-05-01T23:18:02.084Z,13.80
2019-05-01T23:20:34.818Z,13.22
2019-05-01T23:23:02.751Z,12.50
2019-05-01T23:25:36.612Z,12.60
2019-05-01T23:28:06.897Z,13.88
2019-05-01T23:30:35.568Z,14.10
2019-05-01T23:33:04.457Z,14.00
2019-05-01T23:35:33.143Z,14.40
2019-05-01T23:38:01.872Z,14.03
2019-05-01T23:40:30.591Z,13.98
2019-05-01T23:42:59.240Z,14.40
2019-05-01T23:45:28.141Z,14.93
2019-05-01T23:47:56.799Z,13.90
2019-05-01T23:50:25.547Z,14.33
2019-05-01T23:52:54.417Z,14.30
2019-05-01T23:55:23.189Z,14.98
2019-05-01T23:57:52.135Z,14.97
